createdAt,value
2024-04-09T01:20:53.992Z,28.2
2024-04-09T01:33:46.655Z,14.6
2024-04-09T01:53:28.972Z,12.3
2024-04-09T01:59:21.285Z,14.4
2024-04-09T02:05:14.240Z,9.1
2024-04-09T02:11:07.387Z,12.3
2024-04-09T02:17:00.551Z,13.4
2024-04-09T02:22:53.225Z,10.1
2024-04-09T02:28:45.908Z,13.1
2024-04-09T02:34:39.643Z,12.2
2024-04-09T02:40:31.545Z,8
2024-04-09T02:46:22.256Z,9.9
2024-04-09T02:52:14.652Z,9.9
2024-04-09T02:58:06.668Z,12.8
2024-04-09T03:04:00.390Z,14.6
2024-04-09T03:09:53.638Z,9.9
2024-04-09T03:15:48.180Z,9.6
2024-04-09T03:21:41.185Z,8.8
2024-04-09T03:27:34.596Z,10.9
2024-04-09T03:33:27.740Z,12.9
2024-04-09T03:39:20.708Z,10.9
2024-04-09T03:45:14.708Z,11
2024-04-09T03:51:07.418Z,9.5
2024-04-09T03:57:00.274Z,11.4
2024-04-09T04:02:53.078Z,10
2024-04-09T04:08:45.766Z,11.3
2024-04-09T04:14:37.884Z,7.6
2024-04-09T04:20:31.415Z,10.2
2024-04-09T04:26:23.540Z,12.1
2024-04-09T04:32:16.913Z,9.1
2024-04-09T04:38:09.378Z,8.3
2024-04-09T04:44:01.557Z,8.8
2024-04-09T04:49:54.406Z,6.2
2024-04-09T04:55:46.515Z,6.7
2024-04-09T05:01:39.349Z,6.9
2024-04-09T05:07:32.509Z,6.8
2024-04-09T05:13:24.789Z,7.4
2024-04-09T05:19:19.113Z,7.5
2024-04-09T05:25:14.905Z,6.3
2024-04-09T05:31:07.403Z,7.7
2024-04-09T05:37:00.153Z,4.7
2024-04-09T05:42:54.717Z,4.6
2024-04-09T05:48:48.330Z,6.7
2024-04-09T05:54:51.814Z,5.7
2024-04-09T06:00:46.708Z,6.4
2024-04-09T06:06:44.000Z,5.3
2024-04-09T06:25:51.354Z,5.4
2024-04-09T06:38:22.750Z,4.2
2024-04-09T06:51:44.867Z,2.7
2024-04-09T07:18:36.342Z,3.3
2024-04-09T07:24:57.761Z,3
2024-04-09T07:31:32.976Z,1.9
2024-04-09T07:37:58.914Z,2.1
2024-04-09T07:44:21.222Z,3
2024-04-09T07:50:50.016Z,2.2
2024-04-09T08:58:17.434Z,4.4
2024-04-09T09:11:17.656Z,4.4
2024-04-09T09:24:46.735Z,6.4
2024-04-09T09:37:51.640Z,5.4
2024-04-09T09:50:46.250Z,5.2
2024-04-09T09:56:37.456Z,5.7
2024-04-09T10:09:54.737Z,5.7
2024-04-09T10:16:29.234Z,5.4
2024-04-09T10:23:10.753Z,4.7
2024-04-09T10:29:33.400Z,8
2024-04-09T10:35:27.067Z,24.3
2024-04-09T10:41:22.077Z,5.9
2024-04-09T10:47:50.161Z,5.2
2024-04-09T11:08:06.513Z,6.4
2024-04-09T11:28:28.110Z,6.2
2024-04-09T11:34:58.666Z,7.4
2024-04-09T11:41:08.319Z,4.8
2024-04-09T11:47:22.797Z,7.6
2024-04-09T11:53:36.858Z,4.7
2024-04-09T12:00:00.333Z,6.2
2024-04-09T12:40:20.790Z,4.4
2024-04-09T13:01:05.534Z,4.6
2024-04-09T13:07:04.560Z,4.1
2024-04-09T13:13:32.671Z,4.5
2024-04-09T13:20:12.571Z,4.4
2024-04-09T13:26:18.760Z,4.6
2024-04-09T13:45:51.695Z,5.6
2024-04-09T13:51:55.476Z,4.8
2024-04-09T13:58:08.508Z,3.1
2024-04-09T14:11:03.226Z,4.1
2024-04-09T14:16:58.743Z,6.3
2024-04-09T14:29:29.665Z,6.1
2024-04-09T14:35:46.390Z,4.6
2024-04-09T14:55:37.426Z,4.7
2024-04-09T15:08:16.682Z,6.2
2024-04-09T15:14:14.024Z,4.2
2024-04-09T15:40:49.908Z,6.8
2024-04-09T15:46:43.084Z,4.3
2024-04-09T15:52:35.297Z,3.7
2024-04-09T16:05:45.547Z,4.6
2024-04-09T16:24:54.792Z,5
2024-04-09T16:37:41.295Z,5.9
2024-04-09T16:43:34.015Z,3.3
2024-04-09T16:49:26.042Z,5.3
2024-04-09T16:55:19.355Z,4
2024-04-09T17:01:53.476Z,4.5
2024-04-09T17:14:58.424Z,4.6
2024-04-09T17:20:58.277Z,4.7
2024-04-09T17:26:51.848Z,5.1
2024-04-09T17:32:45.062Z,4.7
2024-04-09T18:05:21.485Z,4.2
2024-04-09T19:13:16.288Z,5.7
2024-04-09T19:52:44.550Z,3.1
2024-04-09T20:13:04.611Z,2.8
2024-04-09T20:19:34.909Z,4.4
2024-04-09T20:25:55.922Z,3.2
2024-04-09T20:38:56.893Z,4.2
2024-04-09T20:58:36.976Z,3.6
2024-04-09T21:04:39.738Z,3.9
2024-04-09T21:10:49.062Z,4.5
2024-04-09T21:16:48.207Z,6.8
2024-04-09T22:57:42.940Z,12.4
2024-04-09T23:04:09.441Z,13.2
2024-04-09T23:10:30.127Z,10.5
2024-04-09T23:16:34.018Z,12.7
2024-04-09T23:22:30.662Z,14.7
